Armstrong, Pennsylvania
Current Conditions -  °F | °C
As of 2:54 PM on Saturday 25 Oct 2014 (Local Time) from KIPT Reporting Station
Clear Clear  
Wind Chill: 70°   Ceiling: Unl
Heat Index: 70°   Visibility: 10mi
Dew Point: 44°   Wind: 13mph
Humidity: 39%   Direction: 250°WSW
Pressure: 29.68"   Gusts: 21mph
Location:  41.2285°N, 77.014°W
Report Text: KIPT 251854Z 25011G18KT 10SM CLR 21/07 A2968 RMK AO2 PRESFR SLP050 T02110067
Loading
Personal Weather Stations






























Interactive Weather Map
Tropical Storm Tracking
New forecast layout! Learn more

10-Day Weather Forecast

Advertisements
Track Severe Weather on mobile